ePrivacy and GPDR Cookie Consent by Cookie Consent
EmailTwitter


Observations de surface / Québec / CYHU (71371)

Régions: Québec | Canada | États-Unis | Europe | France | UK | Ailleurs
Station
Affichage
Infos & localisation pour CYHU (71371) | Aide pour décoder les METARs

Observations prises le 2024-05-24 à 10H00 UTC à MONTREAL/ST HUBE, QB (CYHU)

Etat du ciel: dégagé.

Température: 16.0 Celsius

Point de rosée: 9.0 Celsius

Humidité relative: 63%

Vents: Sud-ouest à 26 km/h ou 14 noeuds.

Pression au niveau moyen de la mer: 100.52 kilopascals.

Calage altimétrique: 100.51 kilopascals ou 29.68 pouces de mercure.

Visibilité horizontale: 9.00 milles terrestres ou 14.40 kilomètres.

Observation METAR:

CYHU 241000Z AUTO 21014KT 9SM CLR 16/09 A2968 RMK SLP052 DENSITY ALT 600FT=